createdAt,value
2018-12-08T00:01:43.188Z,93.89
2018-12-08T00:06:54.719Z,93.58
2018-12-08T00:12:05.867Z,92.59
2018-12-08T00:17:16.841Z,92.22
2018-12-08T00:22:28.065Z,92.41
2018-12-08T00:27:39.372Z,92.19
2018-12-08T00:33:24.181Z,92.27
2018-12-08T00:38:37.401Z,91.25
2018-12-08T00:43:48.478Z,92.32
2018-12-08T00:48:56.221Z,93.51
2018-12-08T00:54:09.483Z,92.68
2018-12-08T00:59:20.449Z,92.35
2018-12-08T01:04:31.654Z,91.32
2018-12-08T01:09:45.426Z,91.24
2018-12-08T01:14:58.556Z,90.81
2018-12-08T01:20:09.764Z,91.36
2018-12-08T01:25:21.173Z,91.06
2018-12-08T01:30:33.801Z,90.91
2018-12-08T01:35:44.998Z,91.85
2018-12-08T01:40:56.759Z,91.63
2018-12-08T01:46:10.767Z,92.20
2018-12-08T01:51:22.895Z,91.97
2018-12-08T01:56:34.072Z,91.32
2018-12-08T02:01:46.335Z,91.33
2018-12-08T02:06:57.509Z,91.44
2018-12-08T02:12:09.398Z,91.93
2018-12-08T02:17:20.465Z,90.82
2018-12-08T02:22:32.678Z,90.86
2018-12-08T02:27:47.207Z,90.91
2018-12-08T02:32:59.208Z,91.44
2018-12-08T02:38:10.369Z,91.31
2018-12-08T02:43:24.590Z,90.81
2018-12-08T02:48:35.634Z,90.82
2018-12-08T02:53:47.684Z,90.64
2018-12-08T02:58:55.235Z,90.31
2018-12-08T03:04:09.178Z,89.04
2018-12-08T03:09:21.168Z,89.70
2018-12-08T03:14:33.331Z,90.04
2018-12-08T03:19:45.595Z,90.33
2018-12-08T03:24:57.595Z,89.95
2018-12-08T03:30:11.936Z,89.54
2018-12-08T03:35:22.733Z,90.37
2018-12-08T03:40:36.694Z,89.58
2018-12-08T03:45:48.729Z,89.82
2018-12-08T03:51:02.731Z,89.40
2018-12-08T03:56:14.715Z,89.07
2018-12-08T04:01:26.808Z,89.06
2018-12-08T04:06:34.777Z,88.73
2018-12-08T04:11:50.309Z,88.81
2018-12-08T04:17:01.235Z,88.17
2018-12-08T04:22:13.431Z,88.52
2018-12-08T04:27:21.070Z,88.11
2018-12-08T04:32:35.595Z,88.24
2018-12-08T04:37:47.257Z,88.97
2018-12-08T04:40:16.744Z,88.51
2018-12-08T04:45:27.852Z,88.06
2018-12-08T04:50:37.468Z,89.12
2018-12-08T04:55:49.648Z,89.04
2018-12-08T05:00:56.978Z,88.65
2018-12-08T05:06:08.057Z,88.06
2018-12-08T05:11:18.985Z,88.39
2018-12-08T05:16:30.219Z,87.88
2018-12-08T05:21:41.310Z,87.61
2018-12-08T05:26:52.264Z,87.86
2018-12-08T05:32:03.317Z,87.33
2018-12-08T05:37:14.307Z,86.41
2018-12-08T05:42:27.375Z,87.20
2018-12-08T05:47:38.426Z,87.00
2018-12-08T05:52:50.768Z,86.18
2018-12-08T05:58:01.826Z,86.55
2018-12-08T06:03:14.790Z,86.43
2018-12-08T06:08:26.099Z,88.34
2018-12-08T06:13:36.960Z,89.01
2018-12-08T06:18:48.289Z,89.77
2018-12-08T06:23:59.398Z,88.92
2018-12-08T06:29:10.700Z,88.68
2018-12-08T06:34:21.630Z,88.75
2018-12-08T06:39:33.729Z,88.16
2018-12-08T06:44:46.214Z,88.25
2018-12-08T06:49:58.328Z,87.97
2018-12-08T06:55:12.429Z,88.57
2018-12-08T07:00:24.631Z,88.18
2018-12-08T07:05:35.617Z,92.06
2018-12-08T07:10:47.977Z,93.78
2018-12-08T07:16:01.064Z,93.68
2018-12-08T07:18:30.485Z,93.03
2018-12-08T07:23:42.556Z,94.83
2018-12-08T07:28:53.566Z,96.09
2018-12-08T07:34:04.575Z,95.25
2018-12-08T07:39:15.598Z,95.12
2018-12-08T07:44:29.028Z,94.47
2018-12-08T07:49:40.085Z,95.72
2018-12-08T07:54:51.501Z,96.77
2018-12-08T08:00:04.616Z,95.89
2018-12-08T08:05:15.836Z,95.40
2018-12-08T08:10:27.298Z,94.42
2018-12-08T08:15:38.089Z,94.06
2018-12-08T08:20:49.059Z,92.38
2018-12-08T08:26:03.140Z,92.38
2018-12-08T08:31:14.352Z,92.68
2018-12-08T08:36:25.345Z,92.37
2018-12-08T08:41:36.428Z,93.33
2018-12-08T08:46:47.444Z,92.45
2018-12-08T08:52:00.025Z,92.63
2018-12-08T08:57:11.136Z,92.66
2018-12-08T09:02:24.872Z,93.02
2018-12-08T09:07:41.047Z,93.99
2018-12-08T09:12:54.250Z,93.44
2018-12-08T09:18:05.360Z,91.74
2018-12-08T09:23:18.241Z,91.78
2018-12-08T09:28:29.300Z,91.83
2018-12-08T09:33:40.439Z,92.25
2018-12-08T09:38:51.799Z,92.88
2018-12-08T09:44:02.861Z,93.13
2018-12-08T09:49:15.835Z,92.24
2018-12-08T09:54:27.023Z,91.46
2018-12-08T09:59:37.905Z,90.79
2018-12-08T10:04:49.486Z,90.53
2018-12-08T10:10:02.968Z,91.65
2018-12-08T10:15:14.471Z,92.57
2018-12-08T10:20:25.581Z,93.20
2018-12-08T10:25:33.109Z,92.81
2018-12-08T10:30:45.216Z,93.29
2018-12-08T10:35:53.125Z,92.89
2018-12-08T10:41:04.492Z,93.29
2018-12-08T10:46:15.540Z,93.97
2018-12-08T10:51:27.450Z,92.37
2018-12-08T10:56:39.158Z,90.83
2018-12-08T11:02:01.121Z,88.84
2018-12-08T11:07:14.444Z,88.77
2018-12-08T11:12:26.384Z,88.05
2018-12-08T11:17:37.579Z,87.80
2018-12-08T11:22:50.388Z,88.08
2018-12-08T11:28:01.370Z,87.28
2018-12-08T11:33:10.568Z,87.90
2018-12-08T11:38:21.837Z,86.18
2018-12-08T11:43:34.026Z,87.39
2018-12-08T11:49:01.031Z,87.88
2018-12-08T11:54:18.762Z,88.04
2018-12-08T11:59:33.989Z,85.85
2018-12-08T12:05:09.466Z,84.98
2018-12-08T12:10:35.105Z,83.72
2018-12-08T12:16:01.175Z,82.82
2018-12-08T12:18:37.525Z,83.37
2018-12-08T12:23:56.889Z,81.98
2018-12-08T12:29:08.972Z,81.95
2018-12-08T12:34:34.193Z,82.04
2018-12-08T12:39:48.736Z,81.00
2018-12-08T12:45:14.484Z,81.59
2018-12-08T12:50:34.133Z,80.13
2018-12-08T12:55:49.990Z,79.98
2018-12-08T13:01:03.978Z,79.05
2018-12-08T13:06:20.452Z,79.56
2018-12-08T13:11:34.697Z,78.94
2018-12-08T13:16:46.427Z,80.18
2018-12-08T13:21:57.623Z,83.95
2018-12-08T13:27:11.661Z,85.96
2018-12-08T13:32:25.141Z,86.62
2018-12-08T13:37:36.691Z,86.51
2018-12-08T13:42:50.807Z,87.11
2018-12-08T13:48:03.372Z,86.35
2018-12-08T13:53:16.032Z,87.15
2018-12-08T13:58:27.592Z,87.35
2018-12-08T14:03:39.043Z,87.13
2018-12-08T14:08:50.644Z,85.89
2018-12-08T14:14:02.110Z,85.73
2018-12-08T14:19:15.168Z,83.66
2018-12-08T14:24:26.207Z,82.26
2018-12-08T14:29:41.868Z,81.61
2018-12-08T14:34:56.902Z,80.42
2018-12-08T14:40:10.156Z,79.79
2018-12-08T14:45:22.437Z,80.38
2018-12-08T14:50:34.757Z,79.92
2018-12-08T14:55:51.168Z,79.98
2018-12-08T15:01:06.709Z,79.34
2018-12-08T15:06:17.735Z,79.19
2018-12-08T15:11:29.041Z,79.04
2018-12-08T15:16:40.189Z,77.35
2018-12-08T15:21:48.193Z,77.89
2018-12-08T15:26:55.564Z,77.30
2018-12-08T15:32:07.700Z,77.24
2018-12-08T15:37:15.461Z,78.07
2018-12-08T15:42:45.514Z,77.13
2018-12-08T15:47:58.991Z,76.53
2018-12-08T15:53:14.394Z,76.84
2018-12-08T15:58:25.754Z,79.16
2018-12-08T16:03:38.351Z,81.24
2018-12-08T16:08:49.931Z,82.25
2018-12-08T16:14:05.011Z,82.75
2018-12-08T16:19:16.147Z,83.78
2018-12-08T16:24:27.608Z,83.77
2018-12-08T16:29:39.669Z,84.87
2018-12-08T16:34:51.943Z,84.86
2018-12-08T16:40:07.501Z,84.50
2018-12-08T16:45:15.822Z,86.49
2018-12-08T16:50:27.977Z,87.90
2018-12-08T16:55:39.325Z,89.96
2018-12-08T17:00:51.388Z,90.77
2018-12-08T17:06:02.619Z,91.68
2018-12-08T17:11:15.133Z,91.86
2018-12-08T17:16:26.329Z,93.39
2018-12-08T17:21:38.244Z,97.43
2018-12-08T17:26:49.548Z,99.63
2018-12-08T17:32:01.674Z,100.00
2018-12-08T17:37:12.792Z,100.00
2018-12-08T17:42:24.852Z,100.00
2018-12-08T17:47:36.153Z,100.00
2018-12-08T17:52:49.315Z,100.00
2018-12-08T17:58:00.410Z,100.00
2018-12-08T18:03:14.537Z,100.00
2018-12-08T18:08:25.648Z,100.00
2018-12-08T18:13:34.019Z,99.77
2018-12-08T18:18:45.307Z,99.31
2018-12-08T18:23:57.206Z,99.47
2018-12-08T18:29:08.625Z,99.58
2018-12-08T18:31:37.954Z,99.00
2018-12-08T18:36:49.015Z,100.00
2018-12-08T18:42:02.079Z,100.00
2018-12-08T18:47:15.305Z,100.00
2018-12-08T18:52:26.384Z,100.00
2018-12-08T18:57:37.949Z,100.00
2018-12-08T19:02:51.578Z,100.00
2018-12-08T19:08:02.715Z,100.00
2018-12-08T19:10:32.179Z,100.00
2018-12-08T19:15:43.302Z,100.00
2018-12-08T19:20:55.733Z,100.00
2018-12-08T19:26:06.896Z,100.00
2018-12-08T19:31:19.045Z,100.00
2018-12-08T19:36:26.604Z,100.00
2018-12-08T19:41:38.046Z,100.00
2018-12-08T19:46:49.777Z,100.00
2018-12-08T19:52:01.166Z,100.00
2018-12-08T19:57:12.538Z,100.00
2018-12-08T20:02:23.984Z,100.00
2018-12-08T20:07:35.169Z,100.00
2018-12-08T20:12:46.554Z,100.00
2018-12-08T20:17:59.773Z,100.00
2018-12-08T20:23:11.801Z,100.00
2018-12-08T20:28:24.255Z,100.00
2018-12-08T20:30:54.181Z,100.00
2018-12-08T20:36:05.382Z,100.00
2018-12-08T20:41:16.533Z,100.00
2018-12-08T20:46:29.934Z,100.00
2018-12-08T20:51:40.914Z,100.00
2018-12-08T20:56:52.191Z,100.00
2018-12-08T21:02:03.611Z,100.00
2018-12-08T21:07:14.580Z,100.00
2018-12-08T21:12:25.820Z,100.00
2018-12-08T21:17:37.101Z,100.00
2018-12-08T21:22:50.740Z,100.00
2018-12-08T21:28:03.910Z,100.00
2018-12-08T21:33:15.944Z,100.00
2018-12-08T21:38:27.491Z,100.00
2018-12-08T21:43:40.416Z,100.00
2018-12-08T21:48:51.551Z,99.47
2018-12-08T21:54:03.876Z,98.86
2018-12-08T21:59:11.392Z,98.57
2018-12-08T22:04:22.399Z,99.80
2018-12-08T22:09:33.428Z,100.00
2018-12-08T22:14:49.753Z,97.92
2018-12-08T22:20:00.752Z,98.24
2018-12-08T22:25:11.694Z,97.53
2018-12-08T22:30:22.709Z,95.37
2018-12-08T22:35:33.984Z,96.08
2018-12-08T22:40:45.081Z,93.92
2018-12-08T22:45:57.199Z,92.96
2018-12-08T22:51:08.197Z,93.34
2018-12-08T22:56:21.282Z,92.18
2018-12-08T23:01:33.609Z,90.00
2018-12-08T23:07:00.082Z,90.72
2018-12-08T23:12:12.536Z,90.39
2018-12-08T23:17:23.957Z,91.46
2018-12-08T23:19:53.400Z,90.55
2018-12-08T23:22:22.983Z,89.61
2018-12-08T23:27:35.912Z,89.01
2018-12-08T23:32:50.151Z,89.35
2018-12-08T23:38:01.914Z,88.75
2018-12-08T23:43:14.265Z,88.92
2018-12-08T23:48:26.195Z,87.59
2018-12-08T23:53:39.553Z,88.87
2018-12-08T23:58:52.223Z,88.75
